Terminal Aerodrome Forecast
Issued by NWS

Home | Current Version | Previous Version | Text Only | Print | Product List | Glossary On
Versions: 1 2 3 4 5 6 7 8 9 10 11 12 13 14 15 16
000
FTUS46 KLOX 280500 RRA
TAFBUR
TAF
KBUR 280547Z 2806/0106 15007KT P6SM SCT020 OVC030
     FM281200 VRB03KT P6SM BKN020 OVC030
     FM281700 17008KT P6SM VCSH SCT025 BKN040
      TEMPO 2817/2821 6SM -SHRA BR BKN025
     FM282100 19010KT 6SM -SHRA BKN025 OVC035
     FM010400 VRB03KT P6SM VCSH SCT025 BKN035=

USA.gov is the U.S. government's official web portal to all federal, state and local government web resources and services.